2022年5月28日 3:00 上午2022年5月28日 3:00 下午有效
时间
星期六
3:00 上午
40%
星期六
4:00 上午
40%
星期六
5:00 上午
40%
星期六
6:00 上午
40%
星期六
7:00 上午
星期六
8:00 上午
星期六
9:00 上午
星期六
10:00 上午
星期六
11:00 上午
星期六
12:00 下午
星期六
1:00 下午
星期六
2:00 下午
代码
LIFR
LIFR
LIFR
LIFR
VFR
VFR
VFR
VFR
VFR
VFR
VFR
VFR
天气
天空晴朗
天空晴朗
天空晴朗
天空晴朗
天空晴朗
天空晴朗
天空晴朗
天空晴朗
天空晴朗
天空晴朗
天空晴朗
天空晴朗
能见度
6¼ mi+
6¼ mi+
6¼ mi+
6¼ mi+
6¼ mi+
6¼ mi+
6¼ mi+
6¼ mi+
6¼ mi+
6¼ mi+
6¼ mi+
6¼ mi+
天花板
-
-
-
-
-
-
-
-
-
-
-
-
320°
320°
320°
320°
320°
320°
320°
320°
320°
320°
320°
320°
320°
320°
320°
320°
320°
320°
320°
320°
320°
320°
320°
320°
速度
17 kt
17 kt
17 kt
17 kt
17 kt
17 kt
17 kt
17 kt
17 kt
17 kt
17 kt
17 kt
阵风
温度/星期日
5:19 上午

原版的

TAF EHLW 280016Z 2801/2813 32017KT 9999 FEW020 SCT025
PROB40 TEMPO 2801/2805 SCT018

TAF Drachten Airfield

Drachten Airfield是Drachten,荷兰中的小机场。 该机场有一条跑道: 7/25.

这份报告是针对2022年5月28日 2:16 上午, 当地时间在Leeuwarden Air Base进行的。 从2022年5月28日 3:00 上午到2022年5月28日 3:00 下午, 当地时间有效.

预报

  • 从星期六 3:00 上午到3:00 下午

    • 风: 风来自320°方向,速度为17 kt。
    • 能见度: 6¼ mi 或者更多
    • 乌云: 几云在2.000 ft的高度 和 疏云,零星散落的云朵在2.500 ft的高度.

  • 暂时在星期六 3:00 上午和7:00 上午之间 ({一个机会)

    • 乌云: 疏云,零星散落的云朵在1.800 ft的高度.

白天

今天,太阳从5:18 上午升起,在9:46 下午降落。 这适用于Drachten Airfield,世界夏令时可能有所不同。 当地时间与世界标准时间之间的时差为+2 小时。 夏令时目前正在进行中。

下载我们的应用程序

在您的手机和平板电脑上轻松访问所有航空天气。
有许多网站上没有的功能,如离线支持和个人机场列表。

Studio Eveline

Benalmádena
España

我们和第三方通过cookies跟踪您在我们网站上的上网行为。如果您继续,我们认为您同意我们的cookie政策。 了解更多